createdAt,value
2022-08-07T00:02:36.164Z,100054.44
2022-08-07T00:04:11.203Z,100097.34
2022-08-07T00:06:51.307Z,100092.84
2022-08-07T00:09:29.167Z,100089.47
2022-08-07T00:12:03.279Z,100078.44
2022-08-07T00:14:32.618Z,100012.56
2022-08-07T00:17:02.430Z,100085.59
2022-08-07T00:20:00.399Z,100088.91
2022-08-07T00:22:34.474Z,100076.00
2022-08-07T00:25:15.748Z,100082.06
2022-08-07T00:27:52.243Z,100075.19
2022-08-07T00:30:27.364Z,100091.19
2022-08-07T00:33:00.706Z,100089.66
2022-08-07T00:35:31.412Z,100013.31
2022-08-07T00:38:06.099Z,100094.09
2022-08-07T00:40:39.960Z,100050.63
2022-08-07T00:43:59.506Z,100087.91
2022-08-07T00:46:02.522Z,100086.28
2022-08-07T00:48:32.955Z,100046.47
2022-08-07T00:51:01.234Z,100108.75
2022-08-07T00:53:44.151Z,100106.13
2022-08-07T00:56:19.854Z,100059.31
2022-08-07T00:58:49.552Z,100030.50
2022-08-07T01:01:18.462Z,100086.91
2022-08-07T01:03:56.439Z,100082.63
2022-08-07T01:06:30.449Z,100089.91
2022-08-07T01:09:02.959Z,100079.28
2022-08-07T01:12:09.583Z,100088.75
2022-08-07T01:14:28.300Z,100044.59
2022-08-07T01:16:59.697Z,100089.34
2022-08-07T01:19:33.205Z,100095.97
2022-08-07T01:22:03.155Z,100103.88
2022-08-07T01:24:39.845Z,100071.50
2022-08-07T01:27:19.673Z,100025.69
2022-08-07T01:29:58.391Z,100095.25
2022-08-07T01:32:30.797Z,100089.13
2022-08-07T01:35:03.597Z,100091.72
2022-08-07T01:37:33.776Z,100093.44
2022-08-07T01:40:07.194Z,100045.63
2022-08-07T01:42:58.624Z,100092.91
2022-08-07T01:45:36.964Z,100067.31
2022-08-07T01:48:18.091Z,100103.25
2022-08-07T01:50:58.202Z,100075.91
2022-08-07T01:54:12.540Z,100090.72
2022-08-07T01:56:28.876Z,100092.44
2022-08-07T01:59:15.671Z,100079.16
2022-08-07T02:02:02.677Z,100085.00
2022-08-07T02:04:56.273Z,100090.19
2022-08-07T02:07:50.258Z,100080.53
2022-08-07T02:10:32.506Z,100045.53
2022-08-07T02:13:47.012Z,100086.47
2022-08-07T02:16:19.825Z,100081.91
2022-08-07T02:18:58.244Z,100066.97
2022-08-07T02:21:27.077Z,100032.81
2022-08-07T02:24:18.256Z,100086.00
2022-08-07T02:26:48.283Z,100059.91
2022-08-07T02:29:17.488Z,100058.38
2022-08-07T02:31:54.621Z,100067.06
2022-08-07T02:34:22.860Z,100082.41
2022-08-07T02:36:59.298Z,100067.13
2022-08-07T02:39:42.951Z,100067.47
2022-08-07T02:42:19.794Z,100060.34
2022-08-07T02:44:53.989Z,100066.03
2022-08-07T02:47:28.858Z,100073.00
2022-08-07T02:50:16.653Z,100068.94
2022-08-07T02:53:06.366Z,100067.09
2022-08-07T02:56:03.309Z,100072.88
2022-08-07T02:58:34.383Z,100029.63
2022-08-07T03:01:10.348Z,100047.53
2022-08-07T03:03:50.875Z,100065.00
2022-08-07T03:06:33.103Z,100078.13
2022-08-07T03:09:11.343Z,100069.28
2022-08-07T03:11:52.459Z,100057.72
2022-08-07T03:14:34.879Z,100081.19
2022-08-07T03:17:08.809Z,100038.28
2022-08-07T03:19:40.099Z,100075.34
2022-08-07T03:22:18.694Z,100091.16
2022-08-07T03:24:51.468Z,100082.34
2022-08-07T03:27:30.366Z,100078.56
2022-08-07T03:30:06.072Z,100077.69
2022-08-07T03:32:49.184Z,100073.03
2022-08-07T03:35:43.785Z,100087.09
2022-08-07T03:38:29.396Z,100081.75
2022-08-07T03:41:02.080Z,100071.81
2022-08-07T03:43:35.963Z,100036.84
2022-08-07T03:46:18.305Z,100037.44
2022-08-07T03:49:02.712Z,100073.94
2022-08-07T03:51:47.640Z,100067.78
2022-08-07T03:54:35.286Z,100057.03
2022-08-07T03:58:35.250Z,100057.41
2022-08-07T04:00:03.858Z,100036.78
2022-08-07T04:02:47.196Z,100069.28
2022-08-07T04:05:39.872Z,100044.34
2022-08-07T04:08:23.841Z,100058.78
2022-08-07T04:12:15.586Z,100069.00
2022-08-07T04:14:10.878Z,100072.97
2022-08-07T04:16:38.352Z,100057.97
2022-08-07T04:19:15.096Z,100020.56
2022-08-07T04:22:00.247Z,100076.72
2022-08-07T04:24:42.878Z,100078.78
2022-08-07T04:27:36.001Z,100064.94
2022-08-07T04:30:11.644Z,100055.16
2022-08-07T04:32:58.576Z,100077.00
2022-08-07T04:35:35.290Z,100063.19
2022-08-07T04:38:13.242Z,100072.66
2022-08-07T04:40:51.923Z,100049.31
2022-08-07T04:44:12.791Z,100067.81
2022-08-07T04:46:59.617Z,100080.28
2022-08-07T04:50:39.613Z,100075.22
2022-08-07T04:53:39.959Z,100072.66
2022-08-07T04:58:09.599Z,100078.47
2022-08-07T05:00:12.442Z,100071.66
2022-08-07T05:02:35.772Z,100065.00
2022-08-07T05:05:53.057Z,100071.81
2022-08-07T05:08:18.220Z,100054.16
2022-08-07T05:11:19.703Z,100059.50
2022-08-07T05:14:56.444Z,100052.41
2022-08-07T05:16:55.413Z,100063.75
2022-08-07T05:19:32.657Z,100032.84
2022-08-07T05:22:26.804Z,100059.63
2022-08-07T05:25:01.824Z,100069.22
2022-08-07T05:28:03.030Z,100068.03
2022-08-07T05:30:32.329Z,100064.16
2022-08-07T05:33:06.319Z,100033.75
2022-08-07T05:35:42.159Z,100056.53
2022-08-07T05:39:01.014Z,100063.41
2022-08-07T05:41:11.937Z,100025.97
2022-08-07T05:44:07.724Z,100069.69
2022-08-07T05:46:39.376Z,100036.66
2022-08-07T05:49:12.483Z,100061.50
2022-08-07T05:51:46.371Z,100066.13
2022-08-07T05:54:31.329Z,100065.22
2022-08-07T05:57:16.368Z,100068.81
2022-08-07T05:59:55.759Z,100083.47
2022-08-07T06:02:33.234Z,100042.72
2022-08-07T06:05:15.513Z,100087.13
2022-08-07T06:08:12.339Z,100085.72
2022-08-07T06:10:42.908Z,100067.44
2022-08-07T06:13:13.554Z,100073.75
2022-08-07T06:15:46.877Z,100048.13
2022-08-07T06:18:28.038Z,100075.91
2022-08-07T06:22:14.500Z,100022.50
2022-08-07T06:24:52.234Z,100074.16
2022-08-07T06:26:43.235Z,100048.03
2022-08-07T06:29:12.101Z,100078.59
2022-08-07T06:31:49.506Z,100065.13
2022-08-07T06:34:28.065Z,100059.88
2022-08-07T06:36:59.826Z,100080.06
2022-08-07T06:40:16.590Z,100063.00
2022-08-07T06:42:37.578Z,100059.81
2022-08-07T06:45:21.728Z,100075.84
2022-08-07T06:47:59.207Z,100068.19
2022-08-07T06:50:37.461Z,100066.97
2022-08-07T06:53:18.600Z,100029.44
2022-08-07T06:56:15.042Z,100056.41
2022-08-07T07:00:12.029Z,100059.50
2022-08-07T07:01:48.697Z,100058.63
2022-08-07T07:04:32.669Z,100071.69
2022-08-07T07:07:18.789Z,100058.44
2022-08-07T07:09:53.091Z,100061.97
2022-08-07T07:12:36.600Z,100065.06
2022-08-07T07:15:23.749Z,100063.78
2022-08-07T07:18:14.577Z,100062.31
2022-08-07T07:21:19.372Z,100038.50
2022-08-07T07:24:09.457Z,100055.53
2022-08-07T07:26:51.862Z,100059.44
2022-08-07T07:29:57.172Z,100072.88
2022-08-07T07:32:19.004Z,100063.19
2022-08-07T07:34:50.043Z,100074.44
2022-08-07T07:37:45.354Z,100057.59
2022-08-07T07:40:16.268Z,100067.34
2022-08-07T07:42:51.102Z,100035.03
2022-08-07T07:46:39.706Z,100039.84
2022-08-07T07:48:35.081Z,100050.91
2022-08-07T07:51:09.144Z,100033.34
2022-08-07T07:53:52.121Z,100040.97
2022-08-07T07:56:30.005Z,100046.31
2022-08-07T07:59:02.343Z,100048.72
2022-08-07T08:02:03.893Z,100030.22
2022-08-07T08:04:25.698Z,100042.78
2022-08-07T08:06:56.816Z,100037.56
2022-08-07T08:09:51.674Z,100002.88
2022-08-07T08:12:51.573Z,100053.28
2022-08-07T08:15:16.970Z,100038.53
2022-08-07T08:17:57.709Z,100025.66
2022-08-07T08:20:33.712Z,100045.13
2022-08-07T08:23:28.043Z,100042.13
2022-08-07T08:26:18.942Z,100031.50
2022-08-07T08:28:51.578Z,100025.03
2022-08-07T08:31:30.273Z,100019.88
2022-08-07T08:34:27.006Z,100029.72
2022-08-07T08:36:58.810Z,100030.50
2022-08-07T08:39:39.056Z,100023.41
2022-08-07T08:42:18.483Z,100017.66
2022-08-07T08:45:59.532Z,100015.03
2022-08-07T08:48:56.250Z,100002.91
2022-08-07T08:52:13.406Z,100013.44
2022-08-07T08:54:54.117Z,100007.19
2022-08-07T08:57:38.567Z,100003.50
2022-08-07T09:00:10.401Z,99973.91
2022-08-07T09:03:11.885Z,99972.78
2022-08-07T09:06:07.511Z,99995.41
2022-08-07T09:08:58.593Z,99954.94
2022-08-07T09:11:43.808Z,99982.78
2022-08-07T09:14:34.985Z,100001.94
2022-08-07T09:17:59.360Z,100002.88
2022-08-07T09:20:43.343Z,99995.81
2022-08-07T09:24:54.171Z,99972.00
2022-08-07T09:26:30.239Z,99992.91
2022-08-07T09:30:03.804Z,99959.16
2022-08-07T09:32:24.319Z,99962.56
2022-08-07T09:36:04.274Z,99924.44
2022-08-07T09:38:12.678Z,99981.84
2022-08-07T09:41:07.281Z,99964.31
2022-08-07T09:44:19.244Z,99961.34
2022-08-07T09:47:42.627Z,99952.03
2022-08-07T09:50:19.182Z,99985.34
2022-08-07T09:52:53.990Z,99979.41
2022-08-07T09:55:36.901Z,99992.84
2022-08-07T09:58:54.139Z,99963.78
2022-08-07T10:01:53.163Z,99979.78
2022-08-07T10:04:32.979Z,99979.72
2022-08-07T10:07:24.605Z,99958.97
2022-08-07T10:11:16.431Z,99960.09
2022-08-07T10:14:03.111Z,99960.31
2022-08-07T10:16:47.183Z,99955.16
2022-08-07T10:19:38.520Z,99947.81
2022-08-07T10:22:33.344Z,99912.75
2022-08-07T10:25:11.849Z,99946.63
2022-08-07T10:28:10.566Z,99886.84
2022-08-07T10:31:12.365Z,99934.03
2022-08-07T10:34:27.206Z,99935.72
2022-08-07T10:37:06.373Z,99942.34
2022-08-07T10:40:02.951Z,99935.16
2022-08-07T10:42:43.935Z,99935.34
2022-08-07T10:45:57.427Z,99922.09
2022-08-07T10:48:49.362Z,99919.81
2022-08-07T10:51:39.045Z,99934.50
2022-08-07T10:54:17.469Z,99928.34
2022-08-07T10:57:15.483Z,99920.94
2022-08-07T11:00:05.839Z,99928.25
2022-08-07T11:02:53.912Z,99929.38
2022-08-07T11:05:51.407Z,99918.38
2022-08-07T11:08:30.308Z,99915.91
2022-08-07T11:11:13.924Z,99914.34
2022-08-07T11:14:46.197Z,99908.53
2022-08-07T11:17:02.111Z,99905.19
2022-08-07T11:19:44.362Z,99902.84
2022-08-07T11:22:45.614Z,99910.53
2022-08-07T11:25:31.588Z,99886.03
2022-08-07T11:28:15.397Z,99905.13
2022-08-07T11:31:20.550Z,99901.38
2022-08-07T11:34:16.368Z,99912.13
2022-08-07T11:37:06.781Z,99902.72
2022-08-07T11:40:07.733Z,99902.44
2022-08-07T11:42:47.522Z,99899.72
2022-08-07T11:45:35.981Z,99911.44
2022-08-07T11:48:29.582Z,99902.13
2022-08-07T11:51:22.466Z,99904.56
2022-08-07T11:54:37.910Z,99904.72
2022-08-07T11:58:00.347Z,99898.44
2022-08-07T12:00:38.882Z,99897.41
2022-08-07T12:03:44.283Z,99898.69
2022-08-07T12:06:37.637Z,99884.03
2022-08-07T12:09:23.440Z,99892.56
2022-08-07T12:12:12.108Z,99853.09
2022-08-07T12:15:02.481Z,99884.28
2022-08-07T12:18:12.528Z,99885.72
2022-08-07T12:21:09.250Z,99879.19
2022-08-07T12:24:06.771Z,99880.91
2022-08-07T12:27:00.797Z,99878.63
2022-08-07T12:29:43.396Z,99841.41
2022-08-07T12:32:28.891Z,99853.53
2022-08-07T12:35:02.922Z,99890.72
2022-08-07T12:38:11.517Z,99868.78
2022-08-07T12:40:47.740Z,99883.00
2022-08-07T12:44:01.592Z,99868.34
2022-08-07T12:46:26.548Z,99876.19
2022-08-07T12:49:10.105Z,99883.00
2022-08-07T12:52:12.174Z,99892.69
2022-08-07T12:55:05.650Z,99896.28
2022-08-07T12:58:01.367Z,99889.44
2022-08-07T13:01:19.829Z,99885.72
2022-08-07T13:04:09.823Z,99894.00
2022-08-07T13:07:07.849Z,99892.16
2022-08-07T13:10:29.202Z,99890.69
2022-08-07T13:12:57.039Z,99892.25
2022-08-07T13:15:35.696Z,99903.41
2022-08-07T13:18:26.899Z,99902.53
2022-08-07T13:21:08.215Z,99961.25
2022-08-07T13:24:04.616Z,99966.69
2022-08-07T13:26:52.458Z,99976.13
2022-08-07T13:29:27.440Z,99997.53
2022-08-07T13:32:31.832Z,99997.81
2022-08-07T13:36:00.866Z,99966.50
2022-08-07T13:38:45.492Z,99959.31
2022-08-07T13:41:21.564Z,100021.63
2022-08-07T13:43:55.918Z,100025.25
2022-08-07T13:46:33.810Z,100023.50
2022-08-07T13:50:32.841Z,100026.53
2022-08-07T13:52:22.598Z,100051.91
2022-08-07T13:54:55.842Z,100052.06
2022-08-07T13:57:37.601Z,100047.41
2022-08-07T14:00:13.429Z,100046.66
2022-08-07T14:02:59.074Z,100013.44
2022-08-07T14:05:38.054Z,100041.16
2022-08-07T14:08:09.674Z,100074.78
2022-08-07T14:10:43.718Z,100092.66
2022-08-07T14:13:19.314Z,100105.13
2022-08-07T14:16:04.283Z,100101.47
2022-08-07T14:18:40.114Z,100075.78
2022-08-07T14:21:20.874Z,100047.03
2022-08-07T14:24:14.582Z,100042.44
2022-08-07T14:27:00.930Z,100052.53
2022-08-07T14:30:07.916Z,100088.75
2022-08-07T14:32:47.039Z,100099.34
2022-08-07T14:35:43.097Z,100092.44
2022-08-07T14:38:26.147Z,100077.66
2022-08-07T14:41:04.037Z,100076.47
2022-08-07T14:43:58.342Z,100052.81
2022-08-07T14:46:34.619Z,100048.19
2022-08-07T14:49:55.872Z,100044.09
2022-08-07T14:52:03.296Z,100052.91
2022-08-07T14:57:54.462Z,100086.53
2022-08-07T15:03:16.394Z,100054.88
2022-08-07T15:05:54.778Z,100078.22
2022-08-07T15:08:50.215Z,100079.13
2022-08-07T15:11:54.455Z,100104.22
2022-08-07T15:14:23.373Z,100107.66
2022-08-07T15:17:22.770Z,100105.13
2022-08-07T15:20:32.823Z,100097.13
2022-08-07T15:22:54.098Z,100085.13
2022-08-07T15:25:36.743Z,100105.97
2022-08-07T15:28:32.278Z,100107.72
2022-08-07T15:31:04.819Z,100093.19
2022-08-07T15:33:36.488Z,100099.91
2022-08-07T15:36:08.612Z,100100.13
2022-08-07T15:38:51.450Z,100109.75
2022-08-07T15:42:46.467Z,100119.09
2022-08-07T15:44:23.643Z,100080.28
2022-08-07T15:47:08.958Z,100100.13
2022-08-07T15:50:05.039Z,100104.03
2022-08-07T15:52:38.548Z,100088.88
2022-08-07T15:55:12.258Z,100093.06
2022-08-07T15:57:49.510Z,100075.06
2022-08-07T16:00:31.824Z,100040.00
2022-08-07T16:03:20.988Z,100089.94
2022-08-07T16:06:00.105Z,100045.63
2022-08-07T16:08:38.187Z,100091.06
2022-08-07T16:11:26.928Z,100099.72
2022-08-07T16:14:12.320Z,100093.00
2022-08-07T16:16:56.714Z,100094.91
2022-08-07T16:19:58.995Z,100076.91
2022-08-07T16:22:54.517Z,100089.03
2022-08-07T16:25:52.563Z,100081.25
2022-08-07T16:30:08.246Z,100048.28
2022-08-07T16:31:51.818Z,100088.47
2022-08-07T16:34:48.850Z,100088.53
2022-08-07T16:38:06.538Z,100083.41
2022-08-07T16:41:17.420Z,100097.97
2022-08-07T16:44:47.325Z,100091.84
2022-08-07T16:47:51.602Z,100098.34
2022-08-07T16:51:21.035Z,100113.13
2022-08-07T16:54:16.739Z,100120.22
2022-08-07T16:56:55.218Z,100108.69
2022-08-07T16:59:55.867Z,100111.34
2022-08-07T17:02:51.750Z,100107.97
2022-08-07T17:06:19.379Z,100077.66
2022-08-07T17:08:19.942Z,100136.13
2022-08-07T17:10:59.129Z,100127.56
2022-08-07T17:13:41.600Z,100119.75
2022-08-07T17:16:29.983Z,100136.63
2022-08-07T17:19:01.687Z,100148.16
2022-08-07T17:21:50.844Z,100176.69
2022-08-07T17:24:38.652Z,100183.78
2022-08-07T17:27:34.815Z,100198.53
2022-08-07T17:30:18.090Z,100133.28
2022-08-07T17:33:02.674Z,100146.22
2022-08-07T17:35:58.542Z,100179.00
2022-08-07T17:38:40.341Z,100194.94
2022-08-07T17:42:04.282Z,100188.81
2022-08-07T17:44:33.732Z,100157.66
2022-08-07T17:47:16.952Z,100212.88
2022-08-07T17:50:30.413Z,100195.69
2022-08-07T17:54:00.536Z,100201.13
2022-08-07T17:56:36.329Z,100201.94
2022-08-07T17:59:35.591Z,100203.78
2022-08-07T18:02:12.043Z,100189.56
2022-08-07T18:05:20.658Z,100205.50
2022-08-07T18:08:24.257Z,100190.09
2022-08-07T18:11:53.715Z,100186.63
2022-08-07T18:14:45.040Z,100197.19
2022-08-07T18:18:47.400Z,100189.53
2022-08-07T18:21:09.614Z,100194.69
2022-08-07T18:23:43.721Z,100203.72
2022-08-07T18:26:26.448Z,100216.31
2022-08-07T18:30:05.425Z,100211.16
2022-08-07T18:32:26.207Z,100202.41
2022-08-07T18:35:50.320Z,100205.91
2022-08-07T18:38:55.691Z,100200.94
2022-08-07T18:41:45.784Z,100214.00
2022-08-07T18:44:32.761Z,100219.38
2022-08-07T18:47:20.688Z,100198.59
2022-08-07T18:50:39.377Z,100214.78
2022-08-07T18:53:12.534Z,100104.94
2022-08-07T18:55:57.326Z,100174.38
2022-08-07T18:58:36.011Z,100193.44
2022-08-07T19:02:17.324Z,100216.16
2022-08-07T19:04:13.241Z,100233.97
2022-08-07T19:07:02.660Z,100175.63
2022-08-07T19:09:55.838Z,100243.78
2022-08-07T19:12:48.590Z,100213.31
2022-08-07T19:16:04.216Z,100229.75
2022-08-07T19:18:34.828Z,100234.19
2022-08-07T19:21:46.629Z,100238.72
2022-08-07T19:24:30.770Z,100246.44
2022-08-07T19:28:29.920Z,100240.47
2022-08-07T19:31:05.607Z,100238.41
2022-08-07T19:33:08.351Z,100191.25
2022-08-07T19:35:48.171Z,100225.81
2022-08-07T19:38:20.578Z,100227.47
2022-08-07T19:40:51.888Z,100206.56
2022-08-07T19:43:44.879Z,100236.22
2022-08-07T19:46:17.848Z,100195.28
2022-08-07T19:48:53.788Z,100224.78
2022-08-07T19:51:50.908Z,100222.91
2022-08-07T19:54:33.986Z,100226.53
2022-08-07T19:58:01.512Z,100213.97
2022-08-07T20:00:02.610Z,100227.72
2022-08-07T20:02:52.147Z,100228.47
2022-08-07T20:05:28.036Z,100182.09
2022-08-07T20:08:04.410Z,100224.81
2022-08-07T20:10:55.161Z,100222.09
2022-08-07T20:13:34.717Z,100224.63
2022-08-07T20:16:22.422Z,100192.50
2022-08-07T20:19:02.362Z,100231.94
2022-08-07T20:21:41.791Z,100201.47
2022-08-07T20:24:28.486Z,100239.06
2022-08-07T20:27:11.682Z,100192.16
2022-08-07T20:29:58.392Z,100223.38
2022-08-07T20:32:40.416Z,100202.19
2022-08-07T20:35:16.051Z,100189.13
2022-08-07T20:37:58.423Z,100244.19
2022-08-07T20:40:41.311Z,100207.53
2022-08-07T20:43:16.976Z,100248.53
2022-08-07T20:46:30.278Z,100240.41
2022-08-07T20:49:53.915Z,100237.00
2022-08-07T20:51:35.742Z,100249.25
2022-08-07T20:54:15.111Z,100207.41
2022-08-07T20:56:52.156Z,100266.75
2022-08-07T21:00:04.316Z,100252.53
2022-08-07T21:02:40.291Z,100257.06
2022-08-07T21:05:16.623Z,100224.94
2022-08-07T21:07:49.860Z,100268.41
2022-08-07T21:10:25.278Z,100264.75
2022-08-07T21:13:04.263Z,100271.84
2022-08-07T21:15:58.579Z,100207.41
2022-08-07T21:18:33.633Z,100265.81
2022-08-07T21:21:04.793Z,100216.97
2022-08-07T21:24:02.564Z,100258.56
2022-08-07T21:26:42.853Z,100258.25
2022-08-07T21:29:18.260Z,100258.91
2022-08-07T21:32:43.760Z,100245.16
2022-08-07T21:35:15.861Z,100243.59
2022-08-07T21:38:31.458Z,100251.28
2022-08-07T21:41:10.919Z,100259.41
2022-08-07T21:43:55.930Z,100255.13
2022-08-07T21:46:50.530Z,100253.47
2022-08-07T21:50:03.598Z,100253.59
2022-08-07T21:52:35.905Z,100261.25
2022-08-07T21:55:28.147Z,100287.97
2022-08-07T21:58:12.297Z,100283.47
2022-08-07T22:01:05.199Z,100285.09
2022-08-07T22:03:48.393Z,100275.66
2022-08-07T22:06:30.408Z,100309.72
2022-08-07T22:09:07.030Z,100273.22
2022-08-07T22:12:05.464Z,100315.81
2022-08-07T22:14:44.114Z,100309.50
2022-08-07T22:17:44.403Z,100306.16
2022-08-07T22:20:23.322Z,100275.97
2022-08-07T22:23:13.371Z,100316.50
2022-08-07T22:26:12.435Z,100319.34
2022-08-07T22:29:13.959Z,100323.97
2022-08-07T22:32:05.523Z,100304.75
2022-08-07T22:34:53.399Z,100314.28
2022-08-07T22:38:04.390Z,100306.09
2022-08-07T22:41:11.399Z,100315.22
2022-08-07T22:43:44.419Z,100326.66
2022-08-07T22:46:47.065Z,100334.41
2022-08-07T22:49:27.870Z,100328.31
2022-08-07T22:52:37.684Z,100324.75
2022-08-07T22:55:23.579Z,100321.28
2022-08-07T22:58:27.660Z,100341.63
2022-08-07T23:01:15.569Z,100324.94
2022-08-07T23:04:16.294Z,100334.91
2022-08-07T23:07:00.976Z,100337.75
2022-08-07T23:10:03.734Z,100328.09
2022-08-07T23:12:44.523Z,100319.31
2022-08-07T23:16:06.093Z,100321.38
2022-08-07T23:18:33.947Z,100305.72
2022-08-07T23:21:29.799Z,100305.69
2022-08-07T23:24:47.679Z,100305.03
2022-08-07T23:28:20.322Z,100289.38
2022-08-07T23:30:46.721Z,100290.50
2022-08-07T23:34:21.275Z,100293.38
2022-08-07T23:37:19.667Z,100276.75
2022-08-07T23:40:26.240Z,100270.72
2022-08-07T23:43:37.988Z,100270.81
2022-08-07T23:46:30.420Z,100268.28
2022-08-07T23:49:23.048Z,100273.50
2022-08-07T23:53:01.448Z,100258.72
2022-08-07T23:55:51.846Z,100263.13
2022-08-07T23:58:21.629Z,100275.50
